createdAt,value
2018-07-26T00:02:20.747Z,85.00
2018-07-26T00:04:51.391Z,86.30
2018-07-26T00:07:22.239Z,85.90
2018-07-26T00:09:53.075Z,86.00
2018-07-26T00:12:25.944Z,87.00
2018-07-26T00:14:56.498Z,85.80
2018-07-26T00:17:27.055Z,86.90
2018-07-26T00:19:57.604Z,86.30
2018-07-26T00:22:28.885Z,85.10
2018-07-26T00:25:06.797Z,84.50
2018-07-26T00:27:37.362Z,86.10
2018-07-26T00:30:08.265Z,86.30
2018-07-26T00:32:38.920Z,85.70
2018-07-26T00:35:09.789Z,85.30
2018-07-26T00:37:40.505Z,85.60
2018-07-26T00:40:11.329Z,86.20
2018-07-26T00:45:11.935Z,85.50
2018-07-26T00:47:42.711Z,85.90
2018-07-26T00:50:13.226Z,85.80
2018-07-26T00:55:14.068Z,85.50
2018-07-26T00:57:44.691Z,87.00
2018-07-26T01:00:15.485Z,86.00
2018-07-26T01:02:46.176Z,86.20
2018-07-26T01:05:16.817Z,84.70
2018-07-26T01:07:47.483Z,85.70
2018-07-26T01:10:17.978Z,85.70
2018-07-26T01:17:48.776Z,86.50
2018-07-26T01:20:19.443Z,86.90
2018-07-26T01:22:50.142Z,87.70
2018-07-26T01:25:20.720Z,87.60
2018-07-26T01:27:51.371Z,88.20
2018-07-26T01:30:21.941Z,88.90
2018-07-26T01:32:52.694Z,88.70
2018-07-26T01:35:23.500Z,88.40
2018-07-26T01:37:54.169Z,88.70
2018-07-26T01:40:24.848Z,89.20
2018-07-26T01:44:11.928Z,89.30
2018-07-26T01:46:42.686Z,89.70
2018-07-26T01:51:43.455Z,90.30
2018-07-26T01:56:44.425Z,90.30
2018-07-26T01:59:15.339Z,90.50
2018-07-26T02:01:46.129Z,90.70
2018-07-26T02:04:16.753Z,90.40
2018-07-26T02:06:47.326Z,90.80
2018-07-26T02:09:17.922Z,90.50
2018-07-26T02:11:48.603Z,90.40
2018-07-26T02:16:54.596Z,90.40
2018-07-26T02:19:25.317Z,90.30
2018-07-26T02:21:56.092Z,90.30
2018-07-26T02:24:26.853Z,90.70
2018-07-26T02:26:57.416Z,90.60
2018-07-26T02:29:28.050Z,90.80
2018-07-26T02:31:58.585Z,90.40
2018-07-26T02:34:29.209Z,90.60
2018-07-26T02:36:59.710Z,90.30
2018-07-26T02:39:30.373Z,90.30
2018-07-26T02:44:31.099Z,90.50
2018-07-26T02:47:01.789Z,90.40
2018-07-26T02:49:32.466Z,90.60
2018-07-26T02:52:03.070Z,90.80
2018-07-26T02:54:34.004Z,90.70
2018-07-26T02:57:04.796Z,91.00
2018-07-26T03:02:05.541Z,90.70
2018-07-26T03:04:36.191Z,91.00
2018-07-26T03:07:07.023Z,90.80
2018-07-26T03:09:37.648Z,90.80
2018-07-26T03:17:15.354Z,90.80
2018-07-26T03:19:46.088Z,90.80
2018-07-26T03:22:16.712Z,91.10
2018-07-26T03:24:50.153Z,91.20
2018-07-26T03:27:20.679Z,91.20
2018-07-26T03:32:21.647Z,91.20
2018-07-26T03:34:52.373Z,91.30
2018-07-26T03:37:22.999Z,91.30
2018-07-26T03:39:54.002Z,91.30
2018-07-26T03:42:24.584Z,91.30
2018-07-26T03:44:55.123Z,90.90
2018-07-26T03:47:25.730Z,91.00
2018-07-26T03:49:56.350Z,91.00
2018-07-26T03:52:27.073Z,91.00
2018-07-26T03:54:57.667Z,90.90
2018-07-26T03:57:28.349Z,90.80
2018-07-26T04:02:29.855Z,90.60
2018-07-26T04:05:00.460Z,90.60
2018-07-26T04:07:31.131Z,90.50
2018-07-26T04:10:01.640Z,90.60
2018-07-26T04:12:32.198Z,90.60
2018-07-26T04:15:02.749Z,90.80
2018-07-26T04:17:33.416Z,90.60
2018-07-26T04:25:04.391Z,90.70
2018-07-26T04:27:35.077Z,90.20
2018-07-26T04:30:06.314Z,90.40
2018-07-26T04:32:36.866Z,90.30
2018-07-26T04:35:07.597Z,90.20
2018-07-26T04:37:38.459Z,90.00
2018-07-26T04:40:09.193Z,90.50
2018-07-26T04:42:39.804Z,91.00
2018-07-26T04:45:10.460Z,90.60
2018-07-26T04:47:41.128Z,90.20
2018-07-26T04:50:11.838Z,90.90
2018-07-26T04:52:42.779Z,91.10
2018-07-26T04:55:17.592Z,91.20
2018-07-26T04:57:48.129Z,91.10
2018-07-26T05:00:18.776Z,90.50
2018-07-26T05:02:49.280Z,90.90
2018-07-26T05:05:19.945Z,91.30
2018-07-26T05:07:50.477Z,91.50
2018-07-26T05:10:21.187Z,91.60
2018-07-26T05:12:52.097Z,91.40
2018-07-26T05:15:23.072Z,90.50
2018-07-26T05:17:53.693Z,90.90
2018-07-26T05:20:24.291Z,91.60
2018-07-26T05:22:54.857Z,90.60
2018-07-26T05:25:25.374Z,90.30
2018-07-26T05:27:56.990Z,90.20
2018-07-26T05:30:27.563Z,90.90
2018-07-26T05:35:28.581Z,90.10
2018-07-26T05:37:59.140Z,89.70
2018-07-26T05:43:00.530Z,89.00
2018-07-26T05:45:31.207Z,89.00
2018-07-26T05:55:32.462Z,85.30
2018-07-26T05:58:03.052Z,82.80
2018-07-26T06:00:33.729Z,76.50
2018-07-26T06:03:04.353Z,71.20
2018-07-26T06:05:35.486Z,62.60
2018-07-26T06:08:06.366Z,59.20
2018-07-26T06:10:36.956Z,54.00
2018-07-26T06:13:08.048Z,50.50
2018-07-26T06:15:38.646Z,48.50
2018-07-26T06:18:09.264Z,47.60
2018-07-26T06:20:40.047Z,46.60
2018-07-26T06:23:10.738Z,42.70
2018-07-26T06:25:41.389Z,42.50
2018-07-26T06:28:12.168Z,40.90
2018-07-26T06:30:42.717Z,39.20
2018-07-26T06:35:43.646Z,38.60
2018-07-26T06:38:14.411Z,37.60
2018-07-26T06:43:15.234Z,34.20
2018-07-26T06:45:45.807Z,30.50
2018-07-26T06:48:16.550Z,30.00
2018-07-26T06:50:47.150Z,32.90
2018-07-26T06:55:48.020Z,33.90
2018-07-26T06:58:18.551Z,33.50
2018-07-26T07:00:49.189Z,30.90
2018-07-26T07:03:19.995Z,30.00
2018-07-26T07:05:50.639Z,27.90
2018-07-26T07:08:21.276Z,28.10
2018-07-26T07:10:52.006Z,27.90
2018-07-26T07:13:22.769Z,27.60
2018-07-26T07:15:53.467Z,27.40
2018-07-26T07:20:54.290Z,28.00
2018-07-26T07:23:24.997Z,26.80
2018-07-26T07:25:55.832Z,26.50
2018-07-26T07:28:26.576Z,26.70
2018-07-26T07:30:57.327Z,27.30
2018-07-26T07:33:29.266Z,26.00
2018-07-26T07:36:00.031Z,25.90
2018-07-26T07:38:30.776Z,25.30
2018-07-26T07:41:01.351Z,25.70
2018-07-26T07:43:31.951Z,26.80
2018-07-26T07:46:02.699Z,25.00
2018-07-26T07:48:33.560Z,25.40
2018-07-26T07:51:04.369Z,26.00
2018-07-26T07:53:35.236Z,25.90
2018-07-26T07:56:06.183Z,25.80
2018-07-26T07:58:36.772Z,25.60
2018-07-26T08:01:09.185Z,26.00
2018-07-26T08:03:39.885Z,25.00
2018-07-26T08:06:10.504Z,25.00
2018-07-26T08:08:41.178Z,24.60
2018-07-26T08:11:11.834Z,24.80
2018-07-26T08:13:42.396Z,24.80
2018-07-26T08:16:13.130Z,26.00
2018-07-26T08:18:43.697Z,25.40
2018-07-26T08:21:14.498Z,24.80
2018-07-26T08:23:45.154Z,26.50
2018-07-26T08:26:15.753Z,25.40
2018-07-26T08:28:46.324Z,25.40
2018-07-26T08:31:16.909Z,27.40
2018-07-26T08:33:47.468Z,25.90
2018-07-26T08:36:18.014Z,26.30
2018-07-26T08:38:48.649Z,25.20
2018-07-26T08:41:19.421Z,24.70
2018-07-26T08:43:50.058Z,24.10
2018-07-26T08:46:20.605Z,24.70
2018-07-26T08:48:51.081Z,24.10
2018-07-26T08:51:21.561Z,24.10
2018-07-26T08:53:52.119Z,23.30
2018-07-26T08:56:22.826Z,23.20
2018-07-26T08:58:53.495Z,23.60
2018-07-26T09:01:24.224Z,23.60
2018-07-26T09:03:54.825Z,23.60
2018-07-26T09:06:26.325Z,24.00
2018-07-26T09:08:57.474Z,24.00
2018-07-26T09:11:28.232Z,23.90
2018-07-26T09:13:59.008Z,23.80
2018-07-26T09:16:29.731Z,23.50
2018-07-26T09:19:00.314Z,24.80
2018-07-26T09:21:31.012Z,25.00
2018-07-26T09:24:01.936Z,23.80
2018-07-26T09:26:32.467Z,23.30
2018-07-26T09:29:03.357Z,23.60
2018-07-26T09:31:34.275Z,22.80
2018-07-26T09:34:04.962Z,23.30
2018-07-26T09:36:35.638Z,26.00
2018-07-26T09:39:15.494Z,23.60
2018-07-26T09:41:46.085Z,23.00
2018-07-26T09:44:17.134Z,23.10
2018-07-26T09:46:47.770Z,23.30
2018-07-26T09:49:18.552Z,23.40
2018-07-26T09:51:49.127Z,23.70
2018-07-26T09:54:19.886Z,24.10
2018-07-26T09:56:50.459Z,23.00
2018-07-26T09:59:21.276Z,23.30
2018-07-26T10:01:52.017Z,22.70
2018-07-26T10:04:22.845Z,23.80
2018-07-26T10:06:53.511Z,23.40
2018-07-26T10:09:24.447Z,24.00
2018-07-26T10:11:55.118Z,23.90
2018-07-26T10:14:25.871Z,24.30
2018-07-26T10:16:56.478Z,25.90
2018-07-26T10:19:27.061Z,22.70
2018-07-26T10:21:57.700Z,22.90
2018-07-26T10:24:28.452Z,24.80
2018-07-26T10:26:59.069Z,24.10
2018-07-26T10:29:29.806Z,23.10
2018-07-26T10:32:00.473Z,23.40
2018-07-26T10:34:31.386Z,24.30
2018-07-26T10:37:02.137Z,24.10
2018-07-26T10:42:02.829Z,24.10
2018-07-26T10:44:33.478Z,24.00
2018-07-26T10:47:04.197Z,23.80
2018-07-26T10:49:34.996Z,24.70
2018-07-26T10:52:05.742Z,25.50
2018-07-26T10:54:36.449Z,23.70
2018-07-26T10:57:07.655Z,23.30
2018-07-26T10:59:38.125Z,23.60
2018-07-26T11:02:09.232Z,23.90
2018-07-26T11:04:40.224Z,25.30
2018-07-26T11:07:11.404Z,26.70
2018-07-26T11:09:42.130Z,23.80
2018-07-26T11:12:12.714Z,23.80
2018-07-26T11:14:43.451Z,23.70
2018-07-26T11:17:14.119Z,22.90
2018-07-26T11:19:44.696Z,23.20
2018-07-26T11:22:15.385Z,22.80
2018-07-26T11:25:00.583Z,23.30
2018-07-26T11:27:31.396Z,24.80
2018-07-26T11:30:02.066Z,25.00
2018-07-26T11:32:32.496Z,25.90
2018-07-26T11:35:03.158Z,26.90
2018-07-26T11:37:34.294Z,27.30
2018-07-26T11:40:05.256Z,28.70
2018-07-26T11:42:36.508Z,29.20
2018-07-26T11:45:09.157Z,31.40
2018-07-26T11:47:40.824Z,29.50
2018-07-26T11:50:12.826Z,29.80
2018-07-26T11:52:43.849Z,30.50
2018-07-26T11:55:14.322Z,32.10
2018-07-26T11:57:45.177Z,30.60
2018-07-26T12:00:16.169Z,30.40
2018-07-26T12:02:48.987Z,32.40
2018-07-26T12:05:19.853Z,29.70
2018-07-26T12:07:51.111Z,30.70
2018-07-26T12:10:22.118Z,30.00
2018-07-26T12:12:52.565Z,29.50
2018-07-26T12:15:23.260Z,30.60
2018-07-26T12:17:53.815Z,33.00
2018-07-26T12:20:24.340Z,30.60
2018-07-26T12:22:54.965Z,29.30
2018-07-26T12:25:25.608Z,29.60
2018-07-26T12:27:56.231Z,29.80
2018-07-26T12:30:26.785Z,30.20
2018-07-26T12:32:57.519Z,29.70
2018-07-26T12:35:28.184Z,29.30
2018-07-26T12:37:58.901Z,30.20
2018-07-26T12:40:29.453Z,30.70
2018-07-26T12:43:00.182Z,28.80
2018-07-26T12:45:30.856Z,28.70
2018-07-26T12:48:01.556Z,29.00
2018-07-26T12:50:32.555Z,28.50
2018-07-26T12:53:03.297Z,28.70
2018-07-26T12:55:33.910Z,28.60
2018-07-26T12:58:04.608Z,28.70
2018-07-26T13:00:35.518Z,29.80
2018-07-26T13:03:06.226Z,29.10
2018-07-26T13:08:07.492Z,29.00
2018-07-26T13:10:38.126Z,29.40
2018-07-26T13:13:08.665Z,29.20
2018-07-26T13:15:39.468Z,29.40
2018-07-26T13:18:10.091Z,28.60
2018-07-26T13:20:40.885Z,28.80
2018-07-26T13:23:11.490Z,28.30
2018-07-26T13:25:43.044Z,28.60
2018-07-26T13:28:13.848Z,28.50
2018-07-26T13:30:44.484Z,28.90
2018-07-26T13:33:14.960Z,28.80
2018-07-26T13:35:45.672Z,28.70
2018-07-26T13:38:16.272Z,28.80
2018-07-26T13:40:46.755Z,29.20
2018-07-26T13:43:17.530Z,28.50
2018-07-26T13:45:48.190Z,29.40
2018-07-26T13:48:18.853Z,29.80
2018-07-26T13:50:49.548Z,29.20
2018-07-26T13:53:20.492Z,29.20
2018-07-26T13:55:51.735Z,29.00
2018-07-26T13:58:22.668Z,30.10
2018-07-26T14:00:53.223Z,29.10
2018-07-26T14:03:23.956Z,27.60
2018-07-26T14:05:54.441Z,28.20
2018-07-26T14:08:24.957Z,27.70
2018-07-26T14:10:55.528Z,27.10
2018-07-26T14:13:26.153Z,26.30
2018-07-26T14:15:56.991Z,26.20
2018-07-26T14:18:27.744Z,26.50
2018-07-26T14:20:58.297Z,25.30
2018-07-26T14:23:34.247Z,25.30
2018-07-26T14:26:05.170Z,26.40
2018-07-26T14:28:36.180Z,26.80
2018-07-26T14:31:07.628Z,25.70
2018-07-26T14:33:38.544Z,26.30
2018-07-26T14:36:09.128Z,27.00
2018-07-26T14:38:39.971Z,27.30
2018-07-26T14:41:10.610Z,28.20
2018-07-26T14:43:41.223Z,26.60
2018-07-26T14:46:11.810Z,26.70
2018-07-26T14:48:42.494Z,26.70
2018-07-26T14:51:13.932Z,27.00
2018-07-26T14:53:44.556Z,27.50
2018-07-26T14:56:15.178Z,27.40
2018-07-26T14:58:47.338Z,26.20
2018-07-26T15:01:17.794Z,26.70
2018-07-26T15:03:48.334Z,27.00
2018-07-26T15:06:19.046Z,27.70
2018-07-26T15:08:49.514Z,27.50
2018-07-26T15:11:20.123Z,27.50
2018-07-26T15:13:52.028Z,27.70
2018-07-26T15:16:22.693Z,27.80
2018-07-26T15:18:53.324Z,27.80
2018-07-26T15:23:53.953Z,27.60
2018-07-26T15:26:24.686Z,27.80
2018-07-26T15:28:55.241Z,27.60
2018-07-26T15:31:25.920Z,27.50
2018-07-26T15:33:56.596Z,28.10
2018-07-26T15:36:27.635Z,28.70
2018-07-26T15:38:58.271Z,29.30
2018-07-26T15:41:28.837Z,29.80
2018-07-26T15:43:59.385Z,29.30
2018-07-26T15:46:29.961Z,28.20
2018-07-26T15:49:00.612Z,28.80
2018-07-26T15:51:31.260Z,30.00
2018-07-26T15:54:01.932Z,28.00
2018-07-26T15:56:32.713Z,27.70
2018-07-26T15:59:03.400Z,28.30
2018-07-26T16:01:34.079Z,28.50
2018-07-26T16:04:04.825Z,29.10
2018-07-26T16:06:35.428Z,29.50
2018-07-26T16:09:10.036Z,28.70
2018-07-26T16:11:41.023Z,29.00
2018-07-26T16:14:12.172Z,28.20
2018-07-26T16:16:43.229Z,28.50
2018-07-26T16:19:13.748Z,28.70
2018-07-26T16:21:44.616Z,28.20
2018-07-26T16:24:15.298Z,28.10
2018-07-26T16:26:45.952Z,28.20
2018-07-26T16:29:16.598Z,28.50
2018-07-26T16:31:47.280Z,28.50
2018-07-26T16:36:48.058Z,28.90
2018-07-26T16:39:18.789Z,28.70
2018-07-26T16:41:49.436Z,29.30
2018-07-26T16:44:20.062Z,29.20
2018-07-26T16:46:50.545Z,29.40
2018-07-26T16:49:21.252Z,29.10
2018-07-26T16:51:54.147Z,29.00
2018-07-26T16:54:24.931Z,28.80
2018-07-26T16:56:55.493Z,29.90
2018-07-26T16:59:26.207Z,29.90
2018-07-26T17:01:56.841Z,29.60
2018-07-26T17:04:27.754Z,30.60
2018-07-26T17:06:58.616Z,29.50
2018-07-26T17:09:29.516Z,29.80
2018-07-26T17:12:00.082Z,31.70
2018-07-26T17:14:30.817Z,31.70
2018-07-26T17:17:01.432Z,32.20
2018-07-26T17:19:32.474Z,31.60
2018-07-26T17:22:03.200Z,31.60
2018-07-26T17:24:33.875Z,31.10
2018-07-26T17:27:04.460Z,30.70
2018-07-26T17:29:34.936Z,31.20
2018-07-26T17:32:06.031Z,31.40
2018-07-26T17:34:36.694Z,30.90
2018-07-26T17:37:07.624Z,30.90
2018-07-26T17:39:38.598Z,31.80
2018-07-26T17:42:09.306Z,32.30
2018-07-26T17:44:40.456Z,33.30
2018-07-26T17:47:11.292Z,33.50
2018-07-26T17:49:42.082Z,31.90
2018-07-26T17:52:13.023Z,33.40
2018-07-26T17:54:43.556Z,33.90
2018-07-26T17:57:14.197Z,36.00
2018-07-26T18:02:15.477Z,37.50
2018-07-26T18:04:46.241Z,38.60
2018-07-26T18:07:17.012Z,38.30
2018-07-26T18:09:47.642Z,40.90
2018-07-26T18:12:18.194Z,41.10
2018-07-26T18:14:48.751Z,40.90
2018-07-26T18:17:19.335Z,41.60
2018-07-26T18:19:50.137Z,41.20
2018-07-26T18:22:20.705Z,41.70
2018-07-26T18:27:22.094Z,42.00
2018-07-26T18:32:23.166Z,43.50
2018-07-26T18:34:53.783Z,44.10
2018-07-26T18:37:24.458Z,43.80
2018-07-26T18:39:55.367Z,44.50
2018-07-26T18:42:26.018Z,44.60
2018-07-26T18:44:56.743Z,44.60
2018-07-26T18:47:27.248Z,44.80
2018-07-26T18:49:57.908Z,45.30
2018-07-26T18:52:28.506Z,45.90
2018-07-26T18:54:59.093Z,46.00
2018-07-26T18:57:30.536Z,46.90
2018-07-26T19:00:01.075Z,46.30
2018-07-26T19:02:31.758Z,46.70
2018-07-26T19:05:02.430Z,47.20
2018-07-26T19:07:32.934Z,47.40
2018-07-26T19:10:03.810Z,47.80
2018-07-26T19:12:34.466Z,48.10
2018-07-26T19:15:06.890Z,48.70
2018-07-26T19:17:37.816Z,48.80
2018-07-26T19:20:10.111Z,49.00
2018-07-26T19:22:40.905Z,49.30
2018-07-26T19:25:12.444Z,49.80
2018-07-26T19:27:43.567Z,50.20
2018-07-26T19:30:14.999Z,50.40
2018-07-26T19:32:45.567Z,50.50
2018-07-26T19:35:16.272Z,51.60
2018-07-26T19:37:47.786Z,53.30
2018-07-26T19:40:18.501Z,52.30
2018-07-26T19:42:49.221Z,53.60
2018-07-26T19:47:50.261Z,52.60
2018-07-26T19:50:21.009Z,53.70
2018-07-26T19:57:52.177Z,54.00
2018-07-26T20:02:59.917Z,55.50
2018-07-26T20:05:30.816Z,54.60
2018-07-26T20:08:01.641Z,55.20
2018-07-26T20:10:32.496Z,55.00
2018-07-26T20:13:03.609Z,56.00
2018-07-26T20:15:34.609Z,56.50
2018-07-26T20:18:05.346Z,56.10
2018-07-26T20:20:35.964Z,55.80
2018-07-26T20:23:06.762Z,55.60
2018-07-26T20:25:46.325Z,56.40
2018-07-26T20:28:17.596Z,55.80
2018-07-26T20:30:48.261Z,56.10
2018-07-26T20:33:18.962Z,56.50
2018-07-26T20:35:49.546Z,57.50
2018-07-26T20:38:20.732Z,57.60
2018-07-26T20:40:51.478Z,57.30
2018-07-26T20:45:52.660Z,57.50
2018-07-26T20:48:24.053Z,58.60
2018-07-26T20:50:54.529Z,57.60
2018-07-26T20:53:25.380Z,57.90
2018-07-26T20:55:56.291Z,57.60
2018-07-26T20:58:26.920Z,57.90
2018-07-26T21:00:57.723Z,58.60
2018-07-26T21:03:28.262Z,58.50
2018-07-26T21:05:58.885Z,57.90
2018-07-26T21:10:59.670Z,58.20
2018-07-26T21:13:30.364Z,59.50
2018-07-26T21:16:01.111Z,58.20
2018-07-26T21:18:34.569Z,59.10
2018-07-26T21:21:05.268Z,59.40
2018-07-26T21:23:35.906Z,58.30
2018-07-26T21:26:07.761Z,58.80
2018-07-26T21:28:38.274Z,59.00
2018-07-26T21:31:08.936Z,60.70
2018-07-26T21:33:39.553Z,59.10
2018-07-26T21:36:10.168Z,58.80
2018-07-26T21:41:11.062Z,60.30
2018-07-26T21:43:41.754Z,59.70
2018-07-26T21:46:12.312Z,60.30
2018-07-26T21:48:42.850Z,58.50
2018-07-26T21:51:13.520Z,58.50
2018-07-26T21:53:44.187Z,61.40
2018-07-26T21:56:15.805Z,57.40
2018-07-26T21:58:46.839Z,57.10
2018-07-26T22:01:17.535Z,58.10
2018-07-26T22:03:48.171Z,59.10
2018-07-26T22:06:18.866Z,58.60
2018-07-26T22:08:49.684Z,57.20
2018-07-26T22:11:21.864Z,58.10
2018-07-26T22:13:53.530Z,58.30
2018-07-26T22:16:24.154Z,57.30
2018-07-26T22:18:54.824Z,57.60
2018-07-26T22:21:25.403Z,60.10
2018-07-26T22:23:56.073Z,59.10
2018-07-26T22:26:27.110Z,57.60
2018-07-26T22:28:57.842Z,57.20
2018-07-26T22:31:29.050Z,57.90
2018-07-26T22:33:59.613Z,58.60
2018-07-26T22:41:31.400Z,57.40
2018-07-26T22:44:02.276Z,56.80
2018-07-26T22:46:32.973Z,57.00
2018-07-26T22:49:03.860Z,56.20
2018-07-26T22:51:34.465Z,59.90
2018-07-26T22:56:35.615Z,58.00
2018-07-26T23:04:06.685Z,56.40
2018-07-26T23:06:37.261Z,56.40
2018-07-26T23:09:10.829Z,58.90
2018-07-26T23:14:11.885Z,57.20
2018-07-26T23:19:12.636Z,57.30
2018-07-26T23:24:13.523Z,57.00
2018-07-26T23:26:44.205Z,58.20
2018-07-26T23:29:14.691Z,57.20
2018-07-26T23:31:45.341Z,57.60
2018-07-26T23:34:16.117Z,57.10
2018-07-26T23:36:46.615Z,58.00
2018-07-26T23:39:17.304Z,58.50
2018-07-26T23:41:47.780Z,58.00
2018-07-26T23:44:18.256Z,60.40
2018-07-26T23:46:48.967Z,59.30
2018-07-26T23:51:50.332Z,58.50
2018-07-26T23:56:57.975Z,58.20
2018-07-26T23:59:28.411Z,57.60
